sensor_id;sensor_type;location;lat;lon;timestamp;pressure;altitude;pressure_sealevel;temperature;humidity
10342;BME280;5216;54.602;18.356;2022-07-23T00:00:12;101506.19;;;24.34;100.00
10342;BME280;5216;54.602;18.356;2022-07-23T00:02:39;101510.00;;;24.67;100.00
10342;BME280;5216;54.602;18.356;2022-07-23T00:05:06;101500.34;;;24.77;100.00
10342;BME280;5216;54.602;18.356;2022-07-23T00:07:33;101512.31;;;24.42;100.00
10342;BME280;5216;54.602;18.356;2022-07-23T00:10:00;101510.34;;;24.17;100.00
10342;BME280;5216;54.602;18.356;2022-07-23T00:12:26;101506.50;;;24.11;100.00
10342;BME280;5216;54.602;18.356;2022-07-23T00:14:53;101507.75;;;24.07;100.00
10342;BME280;5216;54.602;18.356;2022-07-23T00:17:20;101507.31;;;24.22;100.00
10342;BME280;5216;54.602;18.356;2022-07-23T00:19:46;101506.00;;;24.45;100.00
10342;BME280;5216;54.602;18.356;2022-07-23T00:22:13;101512.66;;;24.30;100.00
10342;BME280;5216;54.602;18.356;2022-07-23T00:24:40;101516.28;;;24.46;100.00
10342;BME280;5216;54.602;18.356;2022-07-23T00:27:06;101516.31;;;24.37;100.00
10342;BME280;5216;54.602;18.356;2022-07-23T00:29:33;101518.44;;;24.51;100.00
10342;BME280;5216;54.602;18.356;2022-07-23T00:31:59;101515.63;;;24.35;100.00
10342;BME280;5216;54.602;18.356;2022-07-23T00:34:26;101515.25;;;24.57;100.00
10342;BME280;5216;54.602;18.356;2022-07-23T00:36:53;101519.78;;;24.55;100.00
10342;BME280;5216;54.602;18.356;2022-07-23T00:39:20;101516.94;;;24.48;100.00
10342;BME280;5216;54.602;18.356;2022-07-23T00:41:49;101515.19;;;24.39;100.00
10342;BME280;5216;54.602;18.356;2022-07-23T00:44:27;101526.28;;;24.69;100.00
10342;BME280;5216;54.602;18.356;2022-07-23T00:46:58;101519.78;;;24.82;100.00
10342;BME280;5216;54.602;18.356;2022-07-23T00:49:28;101524.72;;;24.58;100.00
10342;BME280;5216;54.602;18.356;2022-07-23T00:51:56;101510.09;;;24.75;100.00
10342;BME280;5216;54.602;18.356;2022-07-23T00:54:25;101517.66;;;24.41;100.00
10342;BME280;5216;54.602;18.356;2022-07-23T00:56:52;101514.19;;;24.03;100.00
10342;BME280;5216;54.602;18.356;2022-07-23T00:59:19;101517.50;;;23.96;100.00
10342;BME280;5216;54.602;18.356;2022-07-23T01:01:46;101517.13;;;23.81;100.00
10342;BME280;5216;54.602;18.356;2022-07-23T01:04:15;101514.50;;;23.91;100.00
10342;BME280;5216;54.602;18.356;2022-07-23T01:06:43;101509.72;;;23.96;100.00
10342;BME280;5216;54.602;18.356;2022-07-23T01:09:11;101510.91;;;24.01;100.00
10342;BME280;5216;54.602;18.356;2022-07-23T01:11:38;101514.38;;;23.92;100.00
10342;BME280;5216;54.602;18.356;2022-07-23T01:14:12;101513.56;;;23.82;100.00
10342;BME280;5216;54.602;18.356;2022-07-23T01:16:40;101512.34;;;23.67;100.00
10342;BME280;5216;54.602;18.356;2022-07-23T01:19:07;101500.03;;;23.59;100.00
10342;BME280;5216;54.602;18.356;2022-07-23T01:21:39;101508.63;;;23.89;100.00
10342;BME280;5216;54.602;18.356;2022-07-23T01:24:07;101506.53;;;24.02;100.00
10342;BME280;5216;54.602;18.356;2022-07-23T01:26:34;101511.31;;;24.06;100.00
10342;BME280;5216;54.602;18.356;2022-07-23T01:29:01;101504.94;;;23.91;100.00
10342;BME280;5216;54.602;18.356;2022-07-23T01:31:29;101504.31;;;24.07;100.00
10342;BME280;5216;54.602;18.356;2022-07-23T01:33:57;101500.53;;;24.01;100.00
10342;BME280;5216;54.602;18.356;2022-07-23T01:36:26;101500.63;;;24.19;100.00
10342;BME280;5216;54.602;18.356;2022-07-23T01:38:52;101493.78;;;24.18;100.00
10342;BME280;5216;54.602;18.356;2022-07-23T01:41:19;101495.72;;;24.06;100.00
10342;BME280;5216;54.602;18.356;2022-07-23T01:43:46;101495.81;;;23.68;100.00
10342;BME280;5216;54.602;18.356;2022-07-23T01:46:13;101493.00;;;23.98;100.00
10342;BME280;5216;54.602;18.356;2022-07-23T01:48:39;101489.38;;;23.53;100.00
10342;BME280;5216;54.602;18.356;2022-07-23T01:51:07;101489.34;;;23.14;100.00
10342;BME280;5216;54.602;18.356;2022-07-23T01:53:34;101486.44;;;22.79;100.00
10342;BME280;5216;54.602;18.356;2022-07-23T01:56:01;101491.09;;;22.55;100.00
10342;BME280;5216;54.602;18.356;2022-07-23T01:58:28;101489.53;;;22.33;100.00
10342;BME280;5216;54.602;18.356;2022-07-23T02:00:55;101481.84;;;22.62;100.00
10342;BME280;5216;54.602;18.356;2022-07-23T02:03:22;101478.53;;;23.00;100.00
10342;BME280;5216;54.602;18.356;2022-07-23T02:05:49;101473.94;;;23.32;100.00
10342;BME280;5216;54.602;18.356;2022-07-23T02:08:16;101473.94;;;23.42;100.00
10342;BME280;5216;54.602;18.356;2022-07-23T02:10:43;101469.28;;;23.26;100.00
10342;BME280;5216;54.602;18.356;2022-07-23T02:13:10;101473.22;;;22.82;100.00
10342;BME280;5216;54.602;18.356;2022-07-23T02:15:45;101471.06;;;22.57;100.00
10342;BME280;5216;54.602;18.356;2022-07-23T02:18:12;101472.91;;;22.76;100.00
10342;BME280;5216;54.602;18.356;2022-07-23T02:20:38;101478.66;;;22.79;100.00
10342;BME280;5216;54.602;18.356;2022-07-23T02:23:06;101473.50;;;22.98;100.00
10342;BME280;5216;54.602;18.356;2022-07-23T02:25:34;101473.09;;;23.22;100.00
10342;BME280;5216;54.602;18.356;2022-07-23T02:28:01;101481.16;;;23.38;100.00
10342;BME280;5216;54.602;18.356;2022-07-23T02:30:27;101481.06;;;23.49;100.00
10342;BME280;5216;54.602;18.356;2022-07-23T02:32:54;101488.28;;;23.55;100.00
10342;BME280;5216;54.602;18.356;2022-07-23T02:35:21;101485.16;;;23.61;100.00
10342;BME280;5216;54.602;18.356;2022-07-23T02:37:47;101490.31;;;23.81;100.00
10342;BME280;5216;54.602;18.356;2022-07-23T02:40:16;101497.69;;;23.85;100.00
10342;BME280;5216;54.602;18.356;2022-07-23T02:42:43;101501.50;;;23.91;100.00
10342;BME280;5216;54.602;18.356;2022-07-23T02:45:10;101491.22;;;23.89;100.00
10342;BME280;5216;54.602;18.356;2022-07-23T02:47:37;101491.94;;;23.91;100.00
10342;BME280;5216;54.602;18.356;2022-07-23T02:50:04;101483.19;;;23.92;100.00
10342;BME280;5216;54.602;18.356;2022-07-23T02:52:31;101480.72;;;23.91;100.00
10342;BME280;5216;54.602;18.356;2022-07-23T02:54:58;101478.94;;;23.91;100.00
10342;BME280;5216;54.602;18.356;2022-07-23T02:57:25;101481.13;;;23.96;100.00
10342;BME280;5216;54.602;18.356;2022-07-23T02:59:51;101476.06;;;23.94;100.00
10342;BME280;5216;54.602;18.356;2022-07-23T03:02:18;101484.06;;;24.10;100.00
10342;BME280;5216;54.602;18.356;2022-07-23T03:04:45;101485.16;;;24.18;100.00
10342;BME280;5216;54.602;18.356;2022-07-23T03:07:11;101476.41;;;24.19;100.00
10342;BME280;5216;54.602;18.356;2022-07-23T03:09:38;101478.03;;;24.10;100.00
10342;BME280;5216;54.602;18.356;2022-07-23T03:12:05;101482.84;;;24.14;100.00
10342;BME280;5216;54.602;18.356;2022-07-23T03:14:39;101483.16;;;24.02;100.00
10342;BME280;5216;54.602;18.356;2022-07-23T03:17:05;101485.19;;;24.08;100.00
10342;BME280;5216;54.602;18.356;2022-07-23T03:19:32;101479.06;;;23.99;100.00
10342;BME280;5216;54.602;18.356;2022-07-23T03:21:59;101480.97;;;23.97;100.00
10342;BME280;5216;54.602;18.356;2022-07-23T03:24:25;101484.69;;;23.95;100.00
10342;BME280;5216;54.602;18.356;2022-07-23T03:27:11;101483.72;;;23.86;100.00
10342;BME280;5216;54.602;18.356;2022-07-23T03:29:39;101479.94;;;23.52;100.00
10342;BME280;5216;54.602;18.356;2022-07-23T03:32:05;101483.50;;;23.12;100.00
10342;BME280;5216;54.602;18.356;2022-07-23T03:34:32;101481.56;;;22.86;100.00
10342;BME280;5216;54.602;18.356;2022-07-23T03:36:59;101489.75;;;22.51;100.00
10342;BME280;5216;54.602;18.356;2022-07-23T03:39:28;101486.19;;;22.52;100.00
10342;BME280;5216;54.602;18.356;2022-07-23T03:41:55;101488.50;;;22.55;100.00
10342;BME280;5216;54.602;18.356;2022-07-23T03:44:22;101477.97;;;22.68;100.00
10342;BME280;5216;54.602;18.356;2022-07-23T03:46:48;101474.56;;;22.77;100.00
10342;BME280;5216;54.602;18.356;2022-07-23T03:49:15;101467.06;;;22.83;100.00
10342;BME280;5216;54.602;18.356;2022-07-23T03:51:42;101468.09;;;22.61;100.00
10342;BME280;5216;54.602;18.356;2022-07-23T03:54:09;101458.50;;;22.62;100.00
10342;BME280;5216;54.602;18.356;2022-07-23T03:56:35;101462.47;;;22.66;100.00
10342;BME280;5216;54.602;18.356;2022-07-23T03:59:02;101466.16;;;22.54;100.00
10342;BME280;5216;54.602;18.356;2022-07-23T04:01:30;101472.97;;;22.55;100.00
10342;BME280;5216;54.602;18.356;2022-07-23T04:03:56;101474.69;;;22.45;100.00
10342;BME280;5216;54.602;18.356;2022-07-23T04:06:23;101470.22;;;22.47;100.00
10342;BME280;5216;54.602;18.356;2022-07-23T04:08:49;101470.75;;;22.41;100.00
10342;BME280;5216;54.602;18.356;2022-07-23T04:11:16;101471.97;;;22.37;100.00
10342;BME280;5216;54.602;18.356;2022-07-23T04:13:43;101458.22;;;22.55;100.00
10342;BME280;5216;54.602;18.356;2022-07-23T04:16:09;101460.81;;;22.55;100.00
10342;BME280;5216;54.602;18.356;2022-07-23T04:18:36;101463.50;;;22.75;100.00
10342;BME280;5216;54.602;18.356;2022-07-23T04:21:03;101462.91;;;22.61;100.00
10342;BME280;5216;54.602;18.356;2022-07-23T04:23:30;101461.19;;;22.72;100.00
10342;BME280;5216;54.602;18.356;2022-07-23T04:25:56;101450.81;;;22.81;100.00
10342;BME280;5216;54.602;18.356;2022-07-23T04:28:23;101456.88;;;22.61;100.00
10342;BME280;5216;54.602;18.356;2022-07-23T04:30:50;101465.69;;;22.39;100.00
10342;BME280;5216;54.602;18.356;2022-07-23T04:33:16;101458.16;;;22.27;100.00
10342;BME280;5216;54.602;18.356;2022-07-23T04:35:43;101457.09;;;22.39;100.00
10342;BME280;5216;54.602;18.356;2022-07-23T04:38:10;101444.91;;;22.20;100.00
10342;BME280;5216;54.602;18.356;2022-07-23T04:40:36;101444.06;;;22.20;100.00
10342;BME280;5216;54.602;18.356;2022-07-23T04:43:03;101428.41;;;22.31;100.00
10342;BME280;5216;54.602;18.356;2022-07-23T04:45:30;101437.13;;;22.20;100.00
10342;BME280;5216;54.602;18.356;2022-07-23T04:47:56;101441.63;;;21.97;100.00
10342;BME280;5216;54.602;18.356;2022-07-23T04:50:23;101440.41;;;21.92;100.00
10342;BME280;5216;54.602;18.356;2022-07-23T04:52:50;101434.31;;;22.02;100.00
10342;BME280;5216;54.602;18.356;2022-07-23T04:55:17;101430.94;;;22.11;100.00
10342;BME280;5216;54.602;18.356;2022-07-23T04:57:44;101425.78;;;22.21;100.00
10342;BME280;5216;54.602;18.356;2022-07-23T05:00:11;101419.19;;;22.07;100.00
10342;BME280;5216;54.602;18.356;2022-07-23T05:02:38;101420.66;;;22.00;100.00
10342;BME280;5216;54.602;18.356;2022-07-23T05:05:05;101424.91;;;21.81;100.00
10342;BME280;5216;54.602;18.356;2022-07-23T05:07:31;101427.81;;;21.66;100.00
10342;BME280;5216;54.602;18.356;2022-07-23T05:09:58;101424.31;;;21.77;100.00
10342;BME280;5216;54.602;18.356;2022-07-23T05:12:25;101416.75;;;21.85;100.00
10342;BME280;5216;54.602;18.356;2022-07-23T05:14:51;101425.06;;;22.09;100.00
10342;BME280;5216;54.602;18.356;2022-07-23T05:17:19;101438.59;;;22.13;100.00
10342;BME280;5216;54.602;18.356;2022-07-23T05:19:45;101428.47;;;22.50;100.00
10342;BME280;5216;54.602;18.356;2022-07-23T05:22:12;101420.78;;;22.39;100.00
10342;BME280;5216;54.602;18.356;2022-07-23T05:24:39;101415.53;;;22.59;100.00
10342;BME280;5216;54.602;18.356;2022-07-23T05:27:05;101420.25;;;22.85;100.00
10342;BME280;5216;54.602;18.356;2022-07-23T05:29:32;101429.13;;;23.01;100.00
10342;BME280;5216;54.602;18.356;2022-07-23T05:31:58;101434.84;;;23.14;100.00
10342;BME280;5216;54.602;18.356;2022-07-23T05:34:25;101425.16;;;23.26;100.00
10342;BME280;5216;54.602;18.356;2022-07-23T05:36:52;101438.41;;;23.42;100.00
10342;BME280;5216;54.602;18.356;2022-07-23T05:39:19;101431.03;;;23.19;100.00
10342;BME280;5216;54.602;18.356;2022-07-23T05:41:45;101432.13;;;23.06;100.00
10342;BME280;5216;54.602;18.356;2022-07-23T05:44:12;101421.50;;;23.09;100.00
10342;BME280;5216;54.602;18.356;2022-07-23T05:46:38;101422.16;;;23.11;100.00
10342;BME280;5216;54.602;18.356;2022-07-23T05:49:05;101426.25;;;23.43;100.00
10342;BME280;5216;54.602;18.356;2022-07-23T05:51:32;101427.88;;;23.53;100.00
10342;BME280;5216;54.602;18.356;2022-07-23T05:53:59;101426.59;;;23.77;100.00
10342;BME280;5216;54.602;18.356;2022-07-23T05:56:26;101418.47;;;23.33;100.00
10342;BME280;5216;54.602;18.356;2022-07-23T05:58:53;101420.78;;;23.17;100.00
10342;BME280;5216;54.602;18.356;2022-07-23T06:01:20;101422.16;;;23.11;100.00
10342;BME280;5216;54.602;18.356;2022-07-23T06:03:46;101412.88;;;23.47;100.00
10342;BME280;5216;54.602;18.356;2022-07-23T06:06:13;101411.34;;;23.45;100.00
10342;BME280;5216;54.602;18.356;2022-07-23T06:08:40;101415.56;;;23.65;100.00
10342;BME280;5216;54.602;18.356;2022-07-23T06:11:07;101413.63;;;23.67;100.00
10342;BME280;5216;54.602;18.356;2022-07-23T06:13:34;101409.00;;;23.51;100.00
10342;BME280;5216;54.602;18.356;2022-07-23T06:16:01;101409.91;;;23.79;100.00
10342;BME280;5216;54.602;18.356;2022-07-23T06:18:28;101408.22;;;23.51;100.00
10342;BME280;5216;54.602;18.356;2022-07-23T06:20:54;101407.41;;;23.41;100.00
10342;BME280;5216;54.602;18.356;2022-07-23T06:23:26;101407.94;;;23.25;100.00
10342;BME280;5216;54.602;18.356;2022-07-23T06:25:52;101396.06;;;23.23;100.00
10342;BME280;5216;54.602;18.356;2022-07-23T06:28:19;101399.19;;;23.45;100.00
10342;BME280;5216;54.602;18.356;2022-07-23T06:30:45;101393.56;;;23.59;100.00
10342;BME280;5216;54.602;18.356;2022-07-23T06:33:12;101389.03;;;23.71;100.00
10342;BME280;5216;54.602;18.356;2022-07-23T06:35:39;101377.94;;;23.69;100.00
10342;BME280;5216;54.602;18.356;2022-07-23T06:38:06;101389.22;;;23.50;100.00
10342;BME280;5216;54.602;18.356;2022-07-23T06:40:33;101387.16;;;23.35;100.00
10342;BME280;5216;54.602;18.356;2022-07-23T06:43:00;101386.78;;;23.20;100.00
10342;BME280;5216;54.602;18.356;2022-07-23T06:45:27;101387.03;;;23.17;100.00
10342;BME280;5216;54.602;18.356;2022-07-23T06:47:53;101406.28;;;23.24;100.00
10342;BME280;5216;54.602;18.356;2022-07-23T06:50:20;101405.03;;;23.38;100.00
10342;BME280;5216;54.602;18.356;2022-07-23T06:52:47;101421.88;;;23.34;100.00
10342;BME280;5216;54.602;18.356;2022-07-23T06:55:13;101417.38;;;23.17;100.00
10342;BME280;5216;54.602;18.356;2022-07-23T06:57:40;101428.31;;;23.20;100.00
10342;BME280;5216;54.602;18.356;2022-07-23T07:00:07;101430.22;;;23.37;100.00
10342;BME280;5216;54.602;18.356;2022-07-23T07:02:34;101421.91;;;23.43;100.00
10342;BME280;5216;54.602;18.356;2022-07-23T07:05:01;101416.56;;;23.54;100.00
10342;BME280;5216;54.602;18.356;2022-07-23T07:07:32;101418.16;;;23.65;100.00
10342;BME280;5216;54.602;18.356;2022-07-23T07:09:59;101417.50;;;23.53;100.00
10342;BME280;5216;54.602;18.356;2022-07-23T07:12:26;101409.97;;;23.60;100.00
10342;BME280;5216;54.602;18.356;2022-07-23T07:14:52;101406.97;;;24.01;100.00
10342;BME280;5216;54.602;18.356;2022-07-23T07:17:24;101416.78;;;24.07;100.00
10342;BME280;5216;54.602;18.356;2022-07-23T07:19:50;101418.56;;;24.17;100.00
10342;BME280;5216;54.602;18.356;2022-07-23T07:22:17;101415.81;;;24.08;100.00
10342;BME280;5216;54.602;18.356;2022-07-23T07:24:44;101420.66;;;23.94;100.00
10342;BME280;5216;54.602;18.356;2022-07-23T07:27:10;101419.91;;;24.11;100.00
10342;BME280;5216;54.602;18.356;2022-07-23T07:29:37;101420.19;;;23.71;100.00
10342;BME280;5216;54.602;18.356;2022-07-23T07:32:04;101402.59;;;23.65;100.00
10342;BME280;5216;54.602;18.356;2022-07-23T07:34:31;101404.44;;;23.82;100.00
10342;BME280;5216;54.602;18.356;2022-07-23T07:36:57;101396.44;;;23.93;100.00
10342;BME280;5216;54.602;18.356;2022-07-23T07:39:24;101396.44;;;24.03;100.00
10342;BME280;5216;54.602;18.356;2022-07-23T07:41:50;101396.69;;;24.00;100.00
10342;BME280;5216;54.602;18.356;2022-07-23T07:44:17;101396.78;;;24.18;100.00
10342;BME280;5216;54.602;18.356;2022-07-23T07:46:44;101389.97;;;24.34;100.00
10342;BME280;5216;54.602;18.356;2022-07-23T07:49:10;101394.84;;;24.47;100.00
10342;BME280;5216;54.602;18.356;2022-07-23T07:51:41;101388.16;;;24.62;100.00
10342;BME280;5216;54.602;18.356;2022-07-23T07:54:07;101383.25;;;24.77;100.00
10342;BME280;5216;54.602;18.356;2022-07-23T07:56:34;101393.81;;;24.57;100.00
10342;BME280;5216;54.602;18.356;2022-07-23T07:59:01;101406.38;;;24.62;100.00
10342;BME280;5216;54.602;18.356;2022-07-23T08:01:28;101401.38;;;24.69;100.00
10342;BME280;5216;54.602;18.356;2022-07-23T08:03:55;101395.91;;;24.54;100.00
10342;BME280;5216;54.602;18.356;2022-07-23T08:06:21;101383.72;;;24.54;100.00
10342;BME280;5216;54.602;18.356;2022-07-23T08:08:48;101393.88;;;24.65;100.00
10342;BME280;5216;54.602;18.356;2022-07-23T08:11:15;101396.91;;;24.43;100.00
10342;BME280;5216;54.602;18.356;2022-07-23T08:13:42;101390.41;;;24.57;100.00
10342;BME280;5216;54.602;18.356;2022-07-23T08:16:11;101395.50;;;24.49;100.00
10342;BME280;5216;54.602;18.356;2022-07-23T08:18:38;101402.25;;;24.42;100.00
10342;BME280;5216;54.602;18.356;2022-07-23T08:21:04;101408.16;;;24.17;100.00
10342;BME280;5216;54.602;18.356;2022-07-23T08:23:32;101404.97;;;24.23;100.00
10342;BME280;5216;54.602;18.356;2022-07-23T08:26:01;101403.28;;;24.31;100.00
10342;BME280;5216;54.602;18.356;2022-07-23T08:28:28;101414.72;;;24.38;100.00
10342;BME280;5216;54.602;18.356;2022-07-23T08:30:54;101409.47;;;24.48;100.00
10342;BME280;5216;54.602;18.356;2022-07-23T08:33:21;101407.16;;;24.90;100.00
10342;BME280;5216;54.602;18.356;2022-07-23T08:36:01;101397.03;;;25.04;100.00
10342;BME280;5216;54.602;18.356;2022-07-23T08:38:29;101399.22;;;24.91;100.00
10342;BME280;5216;54.602;18.356;2022-07-23T08:40:56;101400.38;;;24.97;100.00
10342;BME280;5216;54.602;18.356;2022-07-23T08:43:28;101391.41;;;24.91;100.00
10342;BME280;5216;54.602;18.356;2022-07-23T08:46:00;101397.03;;;24.87;100.00
10342;BME280;5216;54.602;18.356;2022-07-23T08:48:34;101383.03;;;25.23;100.00
10342;BME280;5216;54.602;18.356;2022-07-23T08:51:03;101399.25;;;25.17;100.00
10342;BME280;5216;54.602;18.356;2022-07-23T08:53:32;101399.19;;;25.27;100.00
10342;BME280;5216;54.602;18.356;2022-07-23T08:56:00;101401.00;;;25.52;100.00
10342;BME280;5216;54.602;18.356;2022-07-23T08:58:31;101399.28;;;25.43;100.00
10342;BME280;5216;54.602;18.356;2022-07-23T09:00:58;101404.53;;;25.07;100.00
10342;BME280;5216;54.602;18.356;2022-07-23T09:03:31;101399.44;;;24.98;100.00
10342;BME280;5216;54.602;18.356;2022-07-23T09:05:59;101398.16;;;25.20;100.00
10342;BME280;5216;54.602;18.356;2022-07-23T09:08:35;101397.94;;;24.95;100.00
10342;BME280;5216;54.602;18.356;2022-07-23T09:11:04;101400.56;;;24.95;100.00
10342;BME280;5216;54.602;18.356;2022-07-23T09:13:51;101396.09;;;24.88;100.00
10342;BME280;5216;54.602;18.356;2022-07-23T09:16:24;101396.28;;;25.30;100.00
10342;BME280;5216;54.602;18.356;2022-07-23T09:24:01;101393.34;;;25.50;100.00
10342;BME280;5216;54.602;18.356;2022-07-23T09:26:44;101397.28;;;25.37;100.00
10342;BME280;5216;54.602;18.356;2022-07-23T09:29:20;101390.84;;;25.49;100.00
10342;BME280;5216;54.602;18.356;2022-07-23T09:31:56;101393.69;;;25.89;100.00
10342;BME280;5216;54.602;18.356;2022-07-23T09:34:31;101384.16;;;25.72;100.00
10342;BME280;5216;54.602;18.356;2022-07-23T09:39:36;101381.22;;;26.01;100.00
10342;BME280;5216;54.602;18.356;2022-07-23T09:42:17;101365.75;;;26.07;100.00
10342;BME280;5216;54.602;18.356;2022-07-23T09:44:49;101365.59;;;26.09;100.00
10342;BME280;5216;54.602;18.356;2022-07-23T09:47:16;101365.44;;;26.10;100.00
10342;BME280;5216;54.602;18.356;2022-07-23T09:49:59;101374.16;;;26.27;100.00
10342;BME280;5216;54.602;18.356;2022-07-23T09:52:32;101372.03;;;26.23;100.00
10342;BME280;5216;54.602;18.356;2022-07-23T09:55:03;101370.06;;;26.25;100.00
10342;BME280;5216;54.602;18.356;2022-07-23T09:57:32;101366.19;;;26.45;100.00
10342;BME280;5216;54.602;18.356;2022-07-23T10:00:01;101368.41;;;26.16;100.00
10342;BME280;5216;54.602;18.356;2022-07-23T10:02:29;101373.56;;;26.07;100.00
10342;BME280;5216;54.602;18.356;2022-07-23T10:04:59;101378.16;;;26.05;100.00
10342;BME280;5216;54.602;18.356;2022-07-23T10:07:26;101387.53;;;25.90;100.00
10342;BME280;5216;54.602;18.356;2022-07-23T10:09:53;101404.28;;;25.54;100.00
10342;BME280;5216;54.602;18.356;2022-07-23T10:12:20;101394.63;;;25.29;100.00
10342;BME280;5216;54.602;18.356;2022-07-23T10:14:47;101395.69;;;25.18;100.00
10342;BME280;5216;54.602;18.356;2022-07-23T10:17:15;101391.16;;;25.46;100.00
10342;BME280;5216;54.602;18.356;2022-07-23T10:19:42;101392.59;;;25.66;100.00
10342;BME280;5216;54.602;18.356;2022-07-23T10:22:33;101403.28;;;25.81;100.00
10342;BME280;5216;54.602;18.356;2022-07-23T10:25:27;101402.03;;;25.93;100.00
10342;BME280;5216;54.602;18.356;2022-07-23T10:33:56;101424.31;;;26.13;100.00
10342;BME280;5216;54.602;18.356;2022-07-23T10:36:47;101426.13;;;26.21;100.00
10342;BME280;5216;54.602;18.356;2022-07-23T10:39:24;101421.00;;;26.11;100.00
10342;BME280;5216;54.602;18.356;2022-07-23T10:41:51;101416.69;;;26.20;100.00
10342;BME280;5216;54.602;18.356;2022-07-23T10:44:21;101407.63;;;25.72;100.00
10342;BME280;5216;54.602;18.356;2022-07-23T10:47:00;101415.59;;;25.71;100.00
10342;BME280;5216;54.602;18.356;2022-07-23T10:49:36;101415.59;;;25.71;100.00
10342;BME280;5216;54.602;18.356;2022-07-23T10:57:21;101415.88;;;25.42;100.00
10342;BME280;5216;54.602;18.356;2022-07-23T11:02:36;101403.03;;;25.66;100.00
10342;BME280;5216;54.602;18.356;2022-07-23T11:05:08;101394.06;;;25.60;100.00
10342;BME280;5216;54.602;18.356;2022-07-23T11:07:36;101393.44;;;25.49;100.00
10342;BME280;5216;54.602;18.356;2022-07-23T11:10:04;101415.16;;;25.75;100.00
10342;BME280;5216;54.602;18.356;2022-07-23T11:12:31;101427.19;;;25.76;100.00
10342;BME280;5216;54.602;18.356;2022-07-23T11:15:11;101434.31;;;25.48;100.00
10342;BME280;5216;54.602;18.356;2022-07-23T11:27:55;101422.75;;;25.25;100.00
10342;BME280;5216;54.602;18.356;2022-07-23T11:30:39;101421.28;;;25.23;100.00
10342;BME280;5216;54.602;18.356;2022-07-23T11:35:36;101417.75;;;25.32;100.00
10342;BME280;5216;54.602;18.356;2022-07-23T11:38:07;101425.28;;;25.17;100.00
10342;BME280;5216;54.602;18.356;2022-07-23T11:40:35;101422.97;;;25.32;100.00
10342;BME280;5216;54.602;18.356;2022-07-23T11:43:07;101424.19;;;25.45;100.00
10342;BME280;5216;54.602;18.356;2022-07-23T11:45:37;101428.81;;;25.51;100.00
10342;BME280;5216;54.602;18.356;2022-07-23T11:48:06;101423.06;;;25.66;100.00
10342;BME280;5216;54.602;18.356;2022-07-23T11:50:33;101428.94;;;25.68;100.00
10342;BME280;5216;54.602;18.356;2022-07-23T11:53:00;101438.50;;;25.59;100.00
10342;BME280;5216;54.602;18.356;2022-07-23T11:55:27;101424.91;;;25.30;100.00
10342;BME280;5216;54.602;18.356;2022-07-23T11:57:55;101420.56;;;25.56;100.00
10342;BME280;5216;54.602;18.356;2022-07-23T12:00:25;101423.03;;;25.57;100.00
10342;BME280;5216;54.602;18.356;2022-07-23T12:02:57;101423.91;;;25.48;100.00
10342;BME280;5216;54.602;18.356;2022-07-23T12:05:34;101422.88;;;25.41;100.00
10342;BME280;5216;54.602;18.356;2022-07-23T12:08:04;101422.16;;;25.31;100.00
10342;BME280;5216;54.602;18.356;2022-07-23T12:10:42;101410.97;;;25.56;100.00
10342;BME280;5216;54.602;18.356;2022-07-23T12:13:17;101399.50;;;25.24;100.00
10342;BME280;5216;54.602;18.356;2022-07-23T12:15:46;101382.66;;;25.61;100.00
10342;BME280;5216;54.602;18.356;2022-07-23T12:18:20;101376.09;;;25.83;100.00
10342;BME280;5216;54.602;18.356;2022-07-23T12:20:50;101381.84;;;25.95;100.00
10342;BME280;5216;54.602;18.356;2022-07-23T12:23:19;101371.47;;;26.03;100.00
10342;BME280;5216;54.602;18.356;2022-07-23T12:25:49;101368.53;;;26.14;100.00
10342;BME280;5216;54.602;18.356;2022-07-23T12:28:28;101363.25;;;26.24;100.00
10342;BME280;5216;54.602;18.356;2022-07-23T12:30:56;101382.25;;;26.16;100.00
10342;BME280;5216;54.602;18.356;2022-07-23T12:33:32;101382.00;;;25.93;100.00
10342;BME280;5216;54.602;18.356;2022-07-23T12:36:01;101385.97;;;25.72;100.00
10342;BME280;5216;54.602;18.356;2022-07-23T12:38:41;101384.53;;;25.51;100.00
10342;BME280;5216;54.602;18.356;2022-07-23T12:41:09;101394.56;;;25.64;100.00
10342;BME280;5216;54.602;18.356;2022-07-23T12:43:38;101397.09;;;25.82;100.00
10342;BME280;5216;54.602;18.356;2022-07-23T12:46:16;101397.50;;;25.69;100.00
10342;BME280;5216;54.602;18.356;2022-07-23T12:51:29;101397.13;;;24.95;100.00
10342;BME280;5216;54.602;18.356;2022-07-23T12:54:04;101394.75;;;25.01;100.00
10342;BME280;5216;54.602;18.356;2022-07-23T12:56:34;101398.47;;;24.99;100.00
10342;BME280;5216;54.602;18.356;2022-07-23T12:59:07;101399.00;;;25.02;100.00
10342;BME280;5216;54.602;18.356;2022-07-23T13:01:41;101399.94;;;25.19;100.00
10342;BME280;5216;54.602;18.356;2022-07-23T13:06:49;101390.00;;;25.66;100.00
10342;BME280;5216;54.602;18.356;2022-07-23T13:09:27;101395.94;;;25.50;100.00
10342;BME280;5216;54.602;18.356;2022-07-23T13:11:59;101397.94;;;25.39;100.00
10342;BME280;5216;54.602;18.356;2022-07-23T13:14:28;101393.59;;;25.65;100.00
10342;BME280;5216;54.602;18.356;2022-07-23T13:16:55;101396.97;;;25.91;100.00
10342;BME280;5216;54.602;18.356;2022-07-23T13:19:25;101402.84;;;25.93;100.00
10342;BME280;5216;54.602;18.356;2022-07-23T13:21:53;101385.72;;;26.25;100.00
10342;BME280;5216;54.602;18.356;2022-07-23T13:24:20;101392.50;;;26.68;100.00
10342;BME280;5216;54.602;18.356;2022-07-23T13:26:47;101392.00;;;26.56;100.00